Trinidad, California
Current Conditions -  °F | °C
As of 3:53 PM on Monday 20 Oct 2014 (Local Time) from KACV Reporting Station
Overcast Overcast  
Wind Chill: 60°   Ceiling: 5000
Heat Index: 60°   Visibility: 10mi
Dew Point: 54°   Wind: 7mph
Humidity: 80%   Direction: 160°SSE
Pressure: 29.9"   Gusts: NA
Location:  41.06°N, 124.14°W
Report Text: KACV 202253Z AUTO 16006KT 10SM FEW024 BKN050 OVC065 16/12 A2990 RMK AO2 RAB18E42 SLP129 P0000 T01560122
Loading
Personal Weather Stations






























Interactive Weather Map
Tropical Storm Tracking
New forecast layout! Learn more

10-Day Weather Forecast

Advertisements
Track Severe Weather on mobile